Time,TemperatureF,DewpointF,PressureIn,WindDirection,WindDirectionDegrees,WindSpeedMPH,WindSpeedGustMPH,Humidity,HourlyPrecipIn,Conditions,Clouds,dailyrainin,SoftwareType,DateUTC
2013-10-29 00:03:00,43.2,42.4,30.27,SW,222,0.0,0.0,97,0.00,,,0.00,meteobridge,2013-10-29 04:03:00,
2013-10-29 00:08:00,42.8,42.1,30.27,SW,222,0.0,0.0,97,0.00,,,0.00,meteobridge,2013-10-29 04:08:00,
2013-10-29 00:13:00,42.8,42.1,30.27,SW,222,0.0,0.0,97,0.00,,,0.00,meteobridge,2013-10-29 04:13:00,
2013-10-29 00:18:00,42.8,42.1,30.27,SW,222,0.0,0.0,97,0.00,,,0.00,meteobridge,2013-10-29 04:18:00,
2013-10-29 00:24:00,42.6,41.9,30.27,SW,222,0.0,0.0,97,0.00,,,0.00,meteobridge,2013-10-29 04:24:00,
2013-10-29 00:29:00,42.4,41.7,30.27,SW,222,0.0,0.0,97,0.00,,,0.00,meteobridge,2013-10-29 04:29:00,
2013-10-29 00:34:00,42.3,41.5,30.27,SW,222,0.0,0.0,97,0.00,,,0.00,meteobridge,2013-10-29 04:34:00,
2013-10-29 00:39:00,42.1,41.4,30.27,SW,222,0.0,0.0,97,0.00,,,0.00,meteobridge,2013-10-29 04:39:00,
2013-10-29 00:44:00,41.7,41.0,30.28,SW,222,0.0,0.0,97,0.00,,,0.00,meteobridge,2013-10-29 04:44:00,
2013-10-29 00:49:00,41.7,41.0,30.28,SW,222,0.0,0.0,97,0.00,,,0.00,meteobridge,2013-10-29 04:49:00,
2013-10-29 00:54:00,41.7,41.0,30.28,SW,222,0.0,0.0,97,0.00,,,0.00,meteobridge,2013-10-29 04:54:00,
2013-10-29 01:00:00,41.7,41.0,30.28,SW,222,0.0,0.0,97,0.00,,,0.00,meteobridge,2013-10-29 05:00:00,
2013-10-29 01:05:00,41.5,40.8,30.28,SW,222,0.0,0.0,97,0.00,,,0.00,meteobridge,2013-10-29 05:05:00,
2013-10-29 01:10:00,41.5,40.8,30.28,SW,222,0.0,0.0,97,0.00,,,0.00,meteobridge,2013-10-29 05:10:00,
2013-10-29 01:15:00,41.5,40.8,30.28,SW,222,0.0,0.0,97,0.00,,,0.00,meteobridge,2013-10-29 05:15:00,
2013-10-29 01:20:00,41.7,41.2,30.28,SW,222,0.0,0.0,98,0.00,,,0.00,meteobridge,2013-10-29 05:20:00,
2013-10-29 01:26:00,41.9,41.4,30.28,SW,222,0.0,0.0,98,0.00,,,0.00,meteobridge,2013-10-29 05:26:00,
2013-10-29 01:31:00,41.7,41.0,30.28,SW,222,0.0,0.0,97,0.00,,,0.00,meteobridge,2013-10-29 05:31:00,
2013-10-29 01:36:00,41.5,40.8,30.28,SW,222,0.0,0.0,97,0.00,,,0.00,meteobridge,2013-10-29 05:36:00,
2013-10-29 01:41:00,41.5,41.0,30.28,SW,222,0.0,0.0,98,0.00,,,0.00,meteobridge,2013-10-29 05:41:00,
2013-10-29 01:46:00,41.5,41.0,30.28,SW,222,0.0,0.0,98,0.00,,,0.00,meteobridge,2013-10-29 05:46:00,
2013-10-29 01:51:00,41.7,41.2,30.28,SW,222,0.0,0.0,98,0.00,,,0.00,meteobridge,2013-10-29 05:51:00,
2013-10-29 01:57:00,41.9,41.4,30.28,SW,222,0.0,0.0,98,0.00,,,0.00,meteobridge,2013-10-29 05:57:00,
2013-10-29 02:02:00,41.9,41.4,30.29,SW,222,0.0,0.0,98,0.00,,,0.00,meteobridge,2013-10-29 06:02:00,
2013-10-29 02:07:00,41.7,41.2,30.29,SW,222,0.0,0.0,98,0.00,,,0.00,meteobridge,2013-10-29 06:07:00,
2013-10-29 02:12:00,41.7,41.2,30.29,SW,222,0.0,0.0,98,0.00,,,0.00,meteobridge,2013-10-29 06:12:00,
2013-10-29 02:17:00,41.7,41.2,30.28,SW,222,0.0,0.0,98,0.00,,,0.00,meteobridge,2013-10-29 06:17:00,
2013-10-29 02:22:00,41.7,41.2,30.28,SW,222,0.0,0.0,98,0.00,,,0.00,meteobridge,2013-10-29 06:22:00,
2013-10-29 02:28:00,41.7,41.2,30.28,SW,222,0.0,0.0,98,0.00,,,0.00,meteobridge,2013-10-29 06:28:00,
2013-10-29 02:33:00,41.7,41.2,30.28,SW,222,0.0,0.0,98,0.00,,,0.00,meteobridge,2013-10-29 06:33:00,
2013-10-29 02:38:00,41.7,41.2,30.28,SW,222,0.0,0.0,98,0.00,,,0.00,meteobridge,2013-10-29 06:38:00,
2013-10-29 02:43:00,41.7,41.2,30.28,SW,222,0.0,0.0,98,0.00,,,0.00,meteobridge,2013-10-29 06:43:00,
2013-10-29 02:48:00,41.5,41.0,30.28,SW,222,0.0,0.0,98,0.00,,,0.00,meteobridge,2013-10-29 06:48:00,
2013-10-29 02:53:00,41.5,41.0,30.28,SW,222,0.0,0.0,98,0.00,,,0.00,meteobridge,2013-10-29 06:53:00,
2013-10-29 02:58:00,41.7,41.5,30.28,SW,222,0.0,0.0,99,0.00,,,0.00,meteobridge,2013-10-29 06:58:00,
2013-10-29 03:03:00,41.9,41.7,30.29,SW,222,0.0,0.0,99,0.00,,,0.00,meteobridge,2013-10-29 07:03:00,
2013-10-29 03:09:00,42.1,41.9,30.29,SW,222,0.0,0.0,99,0.00,,,0.00,meteobridge,2013-10-29 07:09:00,
2013-10-29 03:14:00,42.1,41.9,30.29,SW,222,0.0,0.0,99,0.00,,,0.00,meteobridge,2013-10-29 07:14:00,
2013-10-29 03:19:00,42.3,42.1,30.29,SW,222,0.0,0.0,99,0.00,,,0.00,meteobridge,2013-10-29 07:19:00,
2013-10-29 03:24:00,42.3,42.1,30.29,SW,222,0.0,0.0,99,0.00,,,0.00,meteobridge,2013-10-29 07:24:00,
2013-10-29 03:30:00,42.3,42.1,30.29,SW,222,0.0,0.0,99,0.00,,,0.00,meteobridge,2013-10-29 07:30:00,
2013-10-29 03:35:00,42.3,42.1,30.29,SW,222,0.0,0.0,99,0.00,,,0.00,meteobridge,2013-10-29 07:35:00,
2013-10-29 03:40:00,42.3,42.1,30.29,SW,222,0.0,0.0,99,0.00,,,0.00,meteobridge,2013-10-29 07:40:00,
2013-10-29 03:45:00,42.3,42.1,30.29,SW,222,0.0,0.0,99,0.00,,,0.00,meteobridge,2013-10-29 07:45:00,
2013-10-29 03:50:00,42.3,42.1,30.29,SW,222,0.0,0.0,99,0.00,,,0.00,meteobridge,2013-10-29 07:50:00,
2013-10-29 03:56:00,42.4,42.3,30.29,SW,222,0.0,0.0,99,0.00,,,0.00,meteobridge,2013-10-29 07:56:00,
2013-10-29 04:01:00,42.6,42.4,30.29,SW,222,0.0,0.0,99,0.00,,,0.00,meteobridge,2013-10-29 08:01:00,
2013-10-29 04:06:00,42.8,42.6,30.29,SW,222,0.0,0.0,99,0.00,,,0.00,meteobridge,2013-10-29 08:06:00,
2013-10-29 04:11:00,42.8,42.6,30.29,SW,222,0.0,0.0,99,0.00,,,0.00,meteobridge,2013-10-29 08:11:00,
2013-10-29 04:16:00,42.8,42.6,30.29,SW,222,0.0,0.0,99,0.00,,,0.00,meteobridge,2013-10-29 08:16:00,
2013-10-29 04:21:00,42.8,42.6,30.29,SW,222,0.0,0.0,99,0.00,,,0.00,meteobridge,2013-10-29 08:21:00,
2013-10-29 04:27:00,42.6,42.4,30.29,SW,222,0.0,0.0,99,0.00,,,0.00,meteobridge,2013-10-29 08:27:00,
2013-10-29 04:32:00,42.8,42.6,30.29,SW,222,0.0,0.0,99,0.00,,,0.00,meteobridge,2013-10-29 08:32:00,
2013-10-29 04:37:00,42.8,42.6,30.29,SW,222,0.0,0.0,99,0.00,,,0.00,meteobridge,2013-10-29 08:37:00,
2013-10-29 04:42:00,42.8,42.6,30.29,SW,222,0.0,0.0,99,0.00,,,0.00,meteobridge,2013-10-29 08:42:00,
2013-10-29 04:47:00,43.0,42.8,30.30,SW,222,0.0,0.0,99,0.00,,,0.00,meteobridge,2013-10-29 08:47:00,
2013-10-29 04:52:00,43.2,43.0,30.30,SW,222,0.9,0.9,99,0.00,,,0.00,meteobridge,2013-10-29 08:52:00,
2013-10-29 04:57:00,43.2,43.0,30.30,SW,222,0.0,0.9,99,0.00,,,0.00,meteobridge,2013-10-29 08:57:00,
2013-10-29 05:03:00,43.2,43.0,30.30,SW,222,0.0,0.0,99,0.00,,,0.00,meteobridge,2013-10-29 09:03:00,
2013-10-29 05:08:00,43.2,43.0,30.30,SW,222,0.0,0.0,99,0.00,,,0.00,meteobridge,2013-10-29 09:08:00,
2013-10-29 05:13:00,43.2,43.0,30.30,SW,222,0.0,0.0,99,0.00,,,0.00,meteobridge,2013-10-29 09:13:00,
2013-10-29 05:18:00,43.2,43.0,30.30,SW,222,0.0,0.0,99,0.00,,,0.00,meteobridge,2013-10-29 09:18:00,
2013-10-29 05:23:00,43.2,43.0,30.30,SW,222,0.0,0.0,99,0.00,,,0.00,meteobridge,2013-10-29 09:23:00,
2013-10-29 05:28:00,43.3,43.2,30.30,SW,222,0.0,0.9,99,0.00,,,0.00,meteobridge,2013-10-29 09:28:00,
2013-10-29 05:33:00,43.3,43.2,30.30,SW,222,0.0,0.0,99,0.00,,,0.00,meteobridge,2013-10-29 09:33:00,
2013-10-29 05:39:00,43.5,43.3,30.30,SW,222,0.0,0.0,99,0.00,,,0.00,meteobridge,2013-10-29 09:39:00,
2013-10-29 05:44:00,43.5,43.3,30.30,SW,222,0.0,0.0,99,0.00,,,0.00,meteobridge,2013-10-29 09:44:00,
2013-10-29 05:49:00,43.5,43.3,30.30,SW,222,0.0,0.0,99,0.00,,,0.00,meteobridge,2013-10-29 09:49:00,
2013-10-29 05:54:00,43.5,43.3,30.30,SW,222,0.0,0.0,99,0.00,,,0.00,meteobridge,2013-10-29 09:54:00,
2013-10-29 06:00:00,43.5,43.3,30.31,SW,222,0.0,0.0,99,0.00,,,0.00,meteobridge,2013-10-29 10:00:00,
2013-10-29 06:05:00,43.9,43.7,30.31,SW,222,0.0,0.0,99,0.00,,,0.00,meteobridge,2013-10-29 10:05:00,
2013-10-29 06:10:00,43.9,43.7,30.31,SW,222,0.0,0.0,99,0.00,,,0.00,meteobridge,2013-10-29 10:10:00,
2013-10-29 06:15:00,43.9,43.7,30.32,SW,222,0.0,0.0,99,0.00,,,0.00,meteobridge,2013-10-29 10:15:00,
2013-10-29 06:20:00,43.9,43.7,30.32,SW,222,0.0,0.0,99,0.00,,,0.00,meteobridge,2013-10-29 10:20:00,
2013-10-29 06:26:00,43.9,43.7,30.32,SW,222,0.0,0.0,99,0.00,,,0.00,meteobridge,2013-10-29 10:26:00,
2013-10-29 06:31:00,43.9,43.7,30.32,SW,222,0.0,0.0,99,0.00,,,0.00,meteobridge,2013-10-29 10:31:00,
2013-10-29 06:36:00,43.9,43.9,30.32,SW,222,0.0,0.0,100,0.00,,,0.00,meteobridge,2013-10-29 10:36:00,
2013-10-29 06:41:00,44.1,44.1,30.32,SW,222,0.0,0.0,100,0.00,,,0.00,meteobridge,2013-10-29 10:41:00,
2013-10-29 06:46:00,44.1,44.1,30.32,SW,222,0.0,0.0,100,0.00,,,0.00,meteobridge,2013-10-29 10:46:00,
2013-10-29 06:51:00,43.9,43.7,30.32,SW,222,0.0,0.0,99,0.00,,,0.00,meteobridge,2013-10-29 10:51:00,
2013-10-29 06:57:00,43.9,43.7,30.32,SW,222,0.0,0.0,99,0.00,,,0.00,meteobridge,2013-10-29 10:57:00,
2013-10-29 07:02:00,43.5,43.3,30.33,SW,222,0.0,0.0,99,0.00,,,0.00,meteobridge,2013-10-29 11:02:00,
2013-10-29 07:07:00,43.5,43.3,30.33,SW,222,0.0,0.0,99,0.00,,,0.00,meteobridge,2013-10-29 11:07:00,
2013-10-29 07:12:00,43.3,43.2,30.33,SW,222,0.0,0.0,99,0.00,,,0.00,meteobridge,2013-10-29 11:12:00,
2013-10-29 07:17:00,43.2,43.0,30.34,SW,222,0.0,0.0,99,0.00,,,0.00,meteobridge,2013-10-29 11:17:00,
2013-10-29 07:22:00,43.2,43.2,30.34,SW,222,0.0,0.0,100,0.00,,,0.00,meteobridge,2013-10-29 11:22:00,
2013-10-29 07:27:00,43.2,43.2,30.34,SW,223,0.0,0.9,100,0.00,,,0.00,meteobridge,2013-10-29 11:27:00,
2013-10-29 07:33:00,43.2,43.2,30.35,SW,223,0.0,0.0,100,0.00,,,0.00,meteobridge,2013-10-29 11:33:00,
2013-10-29 07:38:00,43.3,43.3,30.35,SW,223,0.0,0.0,100,0.00,,,0.00,meteobridge,2013-10-29 11:38:00,
2013-10-29 07:43:00,43.3,43.3,30.35,SW,223,0.0,0.9,100,0.00,,,0.00,meteobridge,2013-10-29 11:43:00,
2013-10-29 07:48:00,43.2,43.2,30.34,SW,223,0.0,2.0,100,0.00,,,0.00,meteobridge,2013-10-29 11:48:00,
2013-10-29 07:53:00,43.2,43.2,30.34,SW,224,0.0,0.0,100,0.00,,,0.00,meteobridge,2013-10-29 11:53:00,
2013-10-29 07:59:00,43.2,43.2,30.34,SW,224,0.0,2.0,100,0.00,,,0.00,meteobridge,2013-10-29 11:59:00,
2013-10-29 08:04:00,43.2,43.2,30.34,SW,224,0.0,2.0,100,0.00,,,0.00,meteobridge,2013-10-29 12:04:00,
2013-10-29 08:09:00,43.2,43.2,30.34,SW,224,0.0,0.9,100,0.00,,,0.00,meteobridge,2013-10-29 12:09:00,
2013-10-29 08:14:00,43.2,43.2,30.34,SW,224,0.0,0.0,100,0.00,,,0.00,meteobridge,2013-10-29 12:14:00,
2013-10-29 08:19:00,43.2,43.2,30.34,SW,224,0.0,0.0,100,0.00,,,0.00,meteobridge,2013-10-29 12:19:00,
2013-10-29 08:24:00,43.2,43.2,30.34,SW,224,0.0,0.0,100,0.00,,,0.00,meteobridge,2013-10-29 12:24:00,
2013-10-29 08:29:00,43.0,43.0,30.35,SW,224,0.9,0.9,100,0.00,,,0.00,meteobridge,2013-10-29 12:29:00,
2013-10-29 08:34:00,43.0,43.0,30.35,SW,224,0.0,0.0,100,0.00,,,0.00,meteobridge,2013-10-29 12:34:00,
2013-10-29 08:40:00,43.0,43.0,30.35,SW,224,0.0,0.0,100,0.00,,,0.00,meteobridge,2013-10-29 12:40:00,
2013-10-29 08:45:00,43.2,43.2,30.35,SW,224,0.0,0.9,100,0.00,,,0.00,meteobridge,2013-10-29 12:45:00,
2013-10-29 08:50:00,43.2,43.2,30.35,SW,224,0.0,0.0,100,0.00,,,0.00,meteobridge,2013-10-29 12:50:00,
2013-10-29 08:55:00,43.2,43.2,30.35,SW,224,0.0,0.0,100,0.00,,,0.00,meteobridge,2013-10-29 12:55:00,
2013-10-29 09:00:00,43.3,43.3,30.35,SW,224,0.0,0.0,100,0.00,,,0.00,meteobridge,2013-10-29 13:00:00,
2013-10-29 09:05:00,43.5,43.5,30.35,SW,224,0.0,0.0,100,0.00,,,0.00,meteobridge,2013-10-29 13:05:00,
2013-10-29 09:11:00,43.5,43.5,30.35,SW,224,0.0,0.0,100,0.00,,,0.00,meteobridge,2013-10-29 13:11:00,
2013-10-29 09:16:00,43.9,43.9,30.35,SW,224,0.0,0.0,100,0.00,,,0.00,meteobridge,2013-10-29 13:16:00,
2013-10-29 09:21:00,43.9,43.9,30.35,SW,224,0.0,0.0,100,0.00,,,0.00,meteobridge,2013-10-29 13:21:00,
2013-10-29 09:26:00,43.9,43.9,30.35,SW,224,0.0,0.0,100,0.00,,,0.00,meteobridge,2013-10-29 13:26:00,
2013-10-29 09:31:00,43.9,43.9,30.35,SW,224,0.0,0.0,100,0.00,,,0.00,meteobridge,2013-10-29 13:31:00,
2013-10-29 09:37:00,44.2,44.2,30.35,SW,224,0.0,0.0,100,0.00,,,0.00,meteobridge,2013-10-29 13:37:00,
2013-10-29 09:42:00,44.2,44.2,30.35,SW,224,0.0,0.0,100,0.00,,,0.00,meteobridge,2013-10-29 13:42:00,
2013-10-29 09:47:00,44.1,44.1,30.35,SW,224,0.0,0.0,100,0.00,,,0.00,meteobridge,2013-10-29 13:47:00,
2013-10-29 09:52:00,44.2,44.2,30.35,SW,224,0.0,0.0,100,0.00,,,0.00,meteobridge,2013-10-29 13:52:00,
2013-10-29 09:58:00,44.6,44.6,30.35,SW,224,0.0,0.0,100,0.00,,,0.00,meteobridge,2013-10-29 13:58:00,
2013-10-29 10:03:00,45.0,45.0,30.35,SW,224,0.0,0.0,100,0.00,,,0.00,meteobridge,2013-10-29 14:03:00,
2013-10-29 10:08:00,45.0,45.0,30.35,SW,224,0.0,0.0,100,0.00,,,0.00,meteobridge,2013-10-29 14:08:00,
2013-10-29 10:13:00,45.1,45.1,30.35,SW,224,0.0,0.0,100,0.00,,,0.00,meteobridge,2013-10-29 14:13:00,
2013-10-29 10:18:00,45.1,45.1,30.34,SW,224,0.0,0.0,100,0.00,,,0.00,meteobridge,2013-10-29 14:18:00,
2013-10-29 10:23:00,45.5,45.5,30.34,SW,224,0.0,0.0,100,0.00,,,0.00,meteobridge,2013-10-29 14:23:00,
2013-10-29 10:28:00,45.5,45.5,30.34,SW,224,0.0,0.9,100,0.00,,,0.00,meteobridge,2013-10-29 14:28:00,
2013-10-29 10:33:00,45.5,45.5,30.34,SW,224,0.0,0.0,100,0.00,,,0.00,meteobridge,2013-10-29 14:33:00,
2013-10-29 10:39:00,45.7,45.7,30.34,SW,224,0.0,0.0,100,0.00,,,0.00,meteobridge,2013-10-29 14:39:00,
2013-10-29 10:44:00,46.0,46.0,30.35,SW,224,0.0,0.0,100,0.00,,,0.00,meteobridge,2013-10-29 14:44:00,
2013-10-29 10:49:00,46.0,46.0,30.35,SW,224,0.0,0.0,100,0.00,,,0.00,meteobridge,2013-10-29 14:49:00,
2013-10-29 10:55:00,46.2,46.2,30.35,SW,226,0.0,0.0,100,0.00,,,0.00,meteobridge,2013-10-29 14:55:00,
2013-10-29 11:00:00,46.4,46.4,30.35,SW,226,0.0,0.0,100,0.00,,,0.00,meteobridge,2013-10-29 15:00:00,
2013-10-29 11:05:00,46.6,46.6,30.35,SW,226,0.0,0.0,100,0.00,,,0.00,meteobridge,2013-10-29 15:05:00,
2013-10-29 11:10:00,46.8,46.8,30.35,SW,226,0.0,0.9,100,0.01,,,0.01,meteobridge,2013-10-29 15:10:00,
2013-10-29 11:15:00,46.9,46.9,30.36,SW,226,0.0,0.0,100,0.01,,,0.01,meteobridge,2013-10-29 15:15:00,
2013-10-29 11:20:00,47.3,47.3,30.36,SW,226,0.0,0.0,100,0.01,,,0.01,meteobridge,2013-10-29 15:20:00,
2013-10-29 11:25:00,47.7,47.7,30.36,SW,226,0.0,0.0,100,0.01,,,0.01,meteobridge,2013-10-29 15:25:00,
2013-10-29 11:30:00,47.7,47.7,30.35,SW,226,0.0,0.9,100,0.01,,,0.01,meteobridge,2013-10-29 15:30:00,
2013-10-29 11:35:00,47.8,47.8,30.35,SW,226,0.0,0.9,100,0.01,,,0.01,meteobridge,2013-10-29 15:35:00,
2013-10-29 11:40:00,47.8,47.8,30.35,SW,226,0.0,0.9,100,0.01,,,0.01,meteobridge,2013-10-29 15:40:00,
2013-10-29 11:46:00,48.2,48.2,30.35,SW,226,0.0,0.0,100,0.01,,,0.01,meteobridge,2013-10-29 15:46:00,
2013-10-29 11:51:00,48.2,48.2,30.35,SW,226,0.0,0.0,100,0.01,,,0.01,meteobridge,2013-10-29 15:51:00,
2013-10-29 11:56:00,48.6,48.6,30.35,SW,226,0.0,0.0,100,0.01,,,0.01,meteobridge,2013-10-29 15:56:00,
2013-10-29 12:02:00,48.7,48.7,30.35,SW,226,0.0,0.0,100,0.01,,,0.01,meteobridge,2013-10-29 16:02:00,
2013-10-29 12:07:00,48.6,48.6,30.35,SW,226,0.0,0.0,100,0.00,,,0.01,meteobridge,2013-10-29 16:07:00,
2013-10-29 12:12:00,48.9,48.9,30.35,SW,226,0.0,0.0,100,0.00,,,0.01,meteobridge,2013-10-29 16:12:00,
2013-10-29 12:17:00,49.3,49.3,30.35,SW,226,0.0,0.0,100,0.00,,,0.01,meteobridge,2013-10-29 16:17:00,
2013-10-29 12:22:00,49.5,49.5,30.35,SW,226,0.0,0.0,100,0.00,,,0.01,meteobridge,2013-10-29 16:22:00,
2013-10-29 12:27:00,49.5,49.5,30.35,SW,226,0.0,0.0,100,0.00,,,0.01,meteobridge,2013-10-29 16:27:00,
2013-10-29 12:33:00,49.6,49.6,30.35,SW,226,0.0,0.9,100,0.00,,,0.01,meteobridge,2013-10-29 16:33:00,
2013-10-29 12:38:00,49.8,49.8,30.35,SW,227,2.0,2.0,100,0.00,,,0.01,meteobridge,2013-10-29 16:38:00,
2013-10-29 12:43:00,49.6,49.6,30.35,SW,227,0.9,2.0,100,0.00,,,0.01,meteobridge,2013-10-29 16:43:00,
2013-10-29 12:48:00,49.8,49.8,30.34,SW,227,0.0,0.9,100,0.00,,,0.01,meteobridge,2013-10-29 16:48:00,
2013-10-29 12:53:00,50.2,50.2,30.34,SW,227,0.0,0.0,100,0.00,,,0.01,meteobridge,2013-10-29 16:53:00,
2013-10-29 12:58:00,50.2,50.2,30.34,SW,227,0.9,0.9,100,0.00,,,0.01,meteobridge,2013-10-29 16:58:00,
2013-10-29 13:04:00,50.2,50.2,30.34,SW,227,0.0,0.0,100,0.00,,,0.01,meteobridge,2013-10-29 17:04:00,
2013-10-29 13:09:00,50.4,50.4,30.34,SW,227,0.0,0.0,100,0.00,,,0.01,meteobridge,2013-10-29 17:09:00,
2013-10-29 13:14:00,50.7,50.7,30.34,SW,227,0.0,0.0,100,0.00,,,0.01,meteobridge,2013-10-29 17:14:00,
2013-10-29 13:19:00,50.7,50.7,30.34,SW,227,0.9,0.9,100,0.00,,,0.01,meteobridge,2013-10-29 17:19:00,
2013-10-29 13:24:00,50.7,50.7,30.34,SW,227,0.0,0.0,100,0.00,,,0.01,meteobridge,2013-10-29 17:24:00,
2013-10-29 13:29:00,51.1,51.1,30.33,SW,227,0.0,0.0,100,0.00,,,0.01,meteobridge,2013-10-29 17:29:00,
2013-10-29 13:34:00,51.3,51.3,30.33,SW,227,0.0,0.0,100,0.00,,,0.01,meteobridge,2013-10-29 17:34:00,
2013-10-29 13:40:00,51.6,51.6,30.33,SW,227,0.0,0.0,100,0.00,,,0.01,meteobridge,2013-10-29 17:40:00,
2013-10-29 13:45:00,52.0,52.0,30.32,SW,227,0.0,0.0,100,0.00,,,0.01,meteobridge,2013-10-29 17:45:00,
2013-10-29 13:50:00,51.6,51.6,30.32,SW,227,0.0,0.9,100,0.00,,,0.01,meteobridge,2013-10-29 17:50:00,
2013-10-29 13:55:00,52.0,52.0,30.32,SW,227,0.0,0.0,100,0.00,,,0.01,meteobridge,2013-10-29 17:55:00,
2013-10-29 14:01:00,52.2,52.2,30.32,SW,227,0.0,0.0,100,0.00,,,0.01,meteobridge,2013-10-29 18:01:00,
2013-10-29 14:06:00,52.3,52.3,30.32,SW,227,0.0,0.0,100,0.00,,,0.01,meteobridge,2013-10-29 18:06:00,
2013-10-29 14:11:00,52.3,52.3,30.32,SW,227,0.0,0.0,100,0.00,,,0.01,meteobridge,2013-10-29 18:11:00,
2013-10-29 14:16:00,52.5,52.5,30.30,SW,227,0.0,0.0,100,0.00,,,0.01,meteobridge,2013-10-29 18:16:00,
2013-10-29 14:21:00,52.5,52.5,30.30,SW,227,0.0,0.0,100,0.00,,,0.01,meteobridge,2013-10-29 18:21:00,
2013-10-29 14:26:00,53.1,53.1,30.30,SW,227,0.0,0.0,100,0.00,,,0.01,meteobridge,2013-10-29 18:26:00,
2013-10-29 14:31:00,53.2,53.2,30.30,SW,227,0.0,0.9,100,0.00,,,0.01,meteobridge,2013-10-29 18:31:00,
2013-10-29 14:36:00,53.2,53.2,30.30,SW,227,0.0,0.0,100,0.00,,,0.01,meteobridge,2013-10-29 18:36:00,
2013-10-29 14:41:00,53.4,53.4,30.30,SW,227,0.0,0.0,100,0.00,,,0.01,meteobridge,2013-10-29 18:41:00,
2013-10-29 14:47:00,53.6,53.6,30.29,SW,227,0.0,0.0,100,0.00,,,0.01,meteobridge,2013-10-29 18:47:00,
2013-10-29 14:52:00,54.1,54.1,30.29,SW,227,0.0,0.0,100,0.00,,,0.01,meteobridge,2013-10-29 18:52:00,
2013-10-29 14:57:00,54.3,54.3,30.29,SW,227,0.9,0.9,100,0.00,,,0.01,meteobridge,2013-10-29 18:57:00,
2013-10-29 15:02:00,54.1,53.8,30.28,SW,227,0.0,0.0,99,0.00,,,0.01,meteobridge,2013-10-29 19:02:00,
2013-10-29 15:07:00,54.3,54.0,30.28,SW,227,0.0,0.0,99,0.00,,,0.01,meteobridge,2013-10-29 19:07:00,
2013-10-29 15:13:00,54.5,54.1,30.28,SW,227,0.0,0.0,99,0.00,,,0.01,meteobridge,2013-10-29 19:13:00,
2013-10-29 15:18:00,54.9,54.5,30.28,SSW,210,0.0,0.0,99,0.00,,,0.01,meteobridge,2013-10-29 19:18:00,
2013-10-29 15:23:00,55.0,54.7,30.28,SSW,210,0.0,0.0,99,0.00,,,0.01,meteobridge,2013-10-29 19:23:00,
2013-10-29 15:28:00,55.2,54.7,30.28,SSW,210,0.0,0.0,98,0.00,,,0.01,meteobridge,2013-10-29 19:28:00,
2013-10-29 15:34:00,55.6,54.7,30.27,SSW,210,0.0,0.0,97,0.00,,,0.01,meteobridge,2013-10-29 19:34:00,
2013-10-29 15:39:00,55.9,55.0,30.27,SSW,210,0.0,0.0,97,0.00,,,0.01,meteobridge,2013-10-29 19:39:00,
2013-10-29 15:44:00,55.9,54.9,30.27,SSW,210,0.0,0.0,96,0.00,,,0.01,meteobridge,2013-10-29 19:44:00,
2013-10-29 15:49:00,56.3,54.9,30.27,SSW,210,0.0,0.0,95,0.00,,,0.01,meteobridge,2013-10-29 19:49:00,
2013-10-29 15:54:00,56.7,55.0,30.27,SSW,210,0.0,0.0,94,0.00,,,0.01,meteobridge,2013-10-29 19:54:00,
2013-10-29 15:59:00,57.0,55.0,30.26,SSW,210,0.0,0.0,93,0.00,,,0.01,meteobridge,2013-10-29 19:59:00,
2013-10-29 16:05:00,57.2,54.7,30.26,SSW,210,0.0,0.0,91,0.00,,,0.01,meteobridge,2013-10-29 20:05:00,
2013-10-29 16:10:00,57.2,54.0,30.26,SSW,210,0.0,0.0,89,0.00,,,0.01,meteobridge,2013-10-29 20:10:00,
2013-10-29 16:15:00,57.2,53.6,30.26,SSW,210,0.0,0.0,88,0.00,,,0.01,meteobridge,2013-10-29 20:15:00,
2013-10-29 16:20:00,57.4,53.6,30.26,SW,216,0.0,0.0,87,0.00,,,0.01,meteobridge,2013-10-29 20:20:00,
2013-10-29 16:25:00,57.6,53.4,30.26,South,175,0.0,0.0,86,0.00,,,0.01,meteobridge,2013-10-29 20:25:00,
2013-10-29 16:31:00,57.6,53.1,30.26,South,175,0.0,0.0,85,0.00,,,0.01,meteobridge,2013-10-29 20:31:00,
2013-10-29 16:36:00,57.7,52.9,30.26,South,175,0.0,0.0,84,0.00,,,0.01,meteobridge,2013-10-29 20:36:00,
2013-10-29 16:41:00,57.9,53.1,30.26,South,175,0.0,0.0,84,0.00,,,0.01,meteobridge,2013-10-29 20:41:00,
2013-10-29 16:46:00,58.1,52.9,30.26,South,175,0.0,0.0,83,0.00,,,0.01,meteobridge,2013-10-29 20:46:00,
2013-10-29 16:51:00,58.1,52.9,30.26,South,175,0.0,0.0,83,0.00,,,0.01,meteobridge,2013-10-29 20:51:00,
2013-10-29 16:56:00,58.3,52.9,30.26,South,175,0.0,0.0,82,0.00,,,0.01,meteobridge,2013-10-29 20:56:00,
2013-10-29 17:02:00,58.3,52.9,30.27,South,175,0.0,0.0,82,0.00,,,0.01,meteobridge,2013-10-29 21:02:00,
2013-10-29 17:07:00,58.5,53.1,30.27,South,175,0.0,0.0,82,0.00,,,0.01,meteobridge,2013-10-29 21:07:00,
2013-10-29 17:12:00,58.6,52.9,30.27,South,175,0.0,0.0,81,0.00,,,0.01,meteobridge,2013-10-29 21:12:00,
2013-10-29 17:17:00,58.5,52.7,30.27,South,175,0.0,0.0,81,0.00,,,0.01,meteobridge,2013-10-29 21:17:00,
2013-10-29 17:22:00,58.5,52.7,30.27,South,175,0.0,0.0,81,0.00,,,0.01,meteobridge,2013-10-29 21:22:00,
2013-10-29 17:27:00,58.5,52.7,30.27,South,175,0.0,0.0,81,0.00,,,0.01,meteobridge,2013-10-29 21:27:00,
2013-10-29 17:33:00,58.3,52.9,30.26,South,175,0.0,0.0,82,0.00,,,0.01,meteobridge,2013-10-29 21:33:00,
2013-10-29 17:38:00,58.1,52.7,30.26,South,175,0.0,0.0,82,0.00,,,0.01,meteobridge,2013-10-29 21:38:00,
2013-10-29 17:43:00,58.1,52.9,30.26,South,175,0.0,0.0,83,0.00,,,0.01,meteobridge,2013-10-29 21:43:00,
2013-10-29 17:48:00,57.9,52.7,30.25,South,175,0.0,0.0,83,0.00,,,0.01,meteobridge,2013-10-29 21:48:00,
2013-10-29 17:53:00,57.9,52.7,30.25,South,175,0.0,0.0,83,0.00,,,0.01,meteobridge,2013-10-29 21:53:00,
2013-10-29 17:59:00,57.9,52.7,30.25,South,175,0.0,0.0,83,0.00,,,0.01,meteobridge,2013-10-29 21:59:00,
2013-10-29 18:04:00,57.7,52.9,30.25,South,175,0.0,0.0,84,0.00,,,0.01,meteobridge,2013-10-29 22:04:00,
2013-10-29 18:09:00,57.6,52.7,30.25,South,175,0.0,0.0,84,0.00,,,0.01,meteobridge,2013-10-29 22:09:00,
2013-10-29 18:14:00,57.6,53.1,30.25,South,175,0.0,0.0,85,0.00,,,0.01,meteobridge,2013-10-29 22:14:00,
2013-10-29 18:19:00,57.2,52.7,30.24,South,175,0.0,0.0,85,0.00,,,0.01,meteobridge,2013-10-29 22:19:00,
2013-10-29 18:24:00,56.8,52.7,30.24,South,175,0.0,0.0,86,0.00,,,0.01,meteobridge,2013-10-29 22:24:00,
2013-10-29 18:29:00,56.7,52.9,30.23,South,175,0.0,0.0,87,0.00,,,0.01,meteobridge,2013-10-29 22:29:00,
2013-10-29 18:35:00,56.5,52.7,30.23,South,175,0.0,0.0,87,0.00,,,0.01,meteobridge,2013-10-29 22:35:00,
2013-10-29 18:40:00,56.3,52.9,30.23,South,175,0.0,0.0,88,0.00,,,0.01,meteobridge,2013-10-29 22:40:00,
2013-10-29 18:45:00,55.9,52.5,30.23,South,175,0.0,0.0,88,0.00,,,0.01,meteobridge,2013-10-29 22:45:00,
2013-10-29 18:50:00,55.8,52.5,30.23,South,175,0.0,0.0,89,0.00,,,0.01,meteobridge,2013-10-29 22:50:00,
2013-10-29 18:55:00,55.4,52.2,30.23,South,175,0.0,0.0,89,0.00,,,0.01,meteobridge,2013-10-29 22:55:00,
2013-10-29 19:01:00,55.2,52.3,30.23,South,175,0.0,0.0,90,0.00,,,0.01,meteobridge,2013-10-29 23:01:00,
2013-10-29 19:06:00,55.0,52.2,30.23,South,175,0.0,0.0,90,0.00,,,0.01,meteobridge,2013-10-29 23:06:00,
2013-10-29 19:11:00,55.0,52.5,30.23,South,175,0.0,0.0,91,0.00,,,0.01,meteobridge,2013-10-29 23:11:00,
2013-10-29 19:16:00,54.9,52.3,30.23,South,175,0.0,0.0,91,0.00,,,0.01,meteobridge,2013-10-29 23:16:00,
2013-10-29 19:21:00,54.7,52.2,30.23,South,175,0.0,0.0,91,0.00,,,0.01,meteobridge,2013-10-29 23:21:00,
2013-10-29 19:26:00,54.5,52.0,30.23,South,175,0.0,0.0,91,0.00,,,0.01,meteobridge,2013-10-29 23:26:00,
2013-10-29 19:31:00,54.3,51.8,30.23,South,175,0.0,0.0,91,0.00,,,0.01,meteobridge,2013-10-29 23:31:00,
2013-10-29 19:37:00,54.1,51.8,30.23,South,175,0.0,0.0,92,0.00,,,0.01,meteobridge,2013-10-29 23:37:00,
2013-10-29 19:42:00,54.1,51.8,30.23,South,175,0.0,0.0,92,0.00,,,0.01,meteobridge,2013-10-29 23:42:00,
2013-10-29 19:47:00,53.8,51.4,30.24,South,175,0.0,0.0,92,0.00,,,0.01,meteobridge,2013-10-29 23:47:00,
2013-10-29 19:52:00,53.6,51.6,30.24,South,175,0.0,0.0,93,0.00,,,0.01,meteobridge,2013-10-29 23:52:00,
2013-10-29 19:57:00,53.4,51.4,30.24,South,175,0.0,0.0,93,0.00,,,0.01,meteobridge,2013-10-29 23:57:00,
2013-10-29 20:02:00,53.2,51.3,30.24,South,175,0.0,0.0,93,0.00,,,0.01,meteobridge,2013-10-30 00:02:00,
2013-10-29 20:07:00,53.2,51.6,30.24,South,175,0.0,0.0,94,0.00,,,0.01,meteobridge,2013-10-30 00:07:00,
2013-10-29 20:13:00,53.1,51.4,30.24,South,175,0.0,0.0,94,0.00,,,0.01,meteobridge,2013-10-30 00:13:00,
2013-10-29 20:18:00,52.9,51.3,30.24,South,175,0.0,0.0,94,0.00,,,0.01,meteobridge,2013-10-30 00:18:00,
2013-10-29 20:23:00,52.5,50.9,30.24,South,175,0.0,0.0,94,0.00,,,0.01,meteobridge,2013-10-30 00:23:00,
2013-10-29 20:28:00,52.5,51.1,30.24,South,175,0.0,0.0,95,0.00,,,0.01,meteobridge,2013-10-30 00:28:00,
2013-10-29 20:34:00,52.3,50.9,30.24,South,175,0.0,0.0,95,0.00,,,0.01,meteobridge,2013-10-30 00:34:00,
2013-10-29 20:39:00,52.2,50.7,30.24,South,175,0.0,0.0,95,0.00,,,0.01,meteobridge,2013-10-30 00:39:00,
2013-10-29 20:44:00,52.2,50.7,30.24,South,175,0.0,0.0,95,0.00,,,0.01,meteobridge,2013-10-30 00:44:00,
2013-10-29 20:49:00,52.2,50.7,30.23,South,175,0.0,0.0,95,0.00,,,0.01,meteobridge,2013-10-30 00:49:00,
2013-10-29 20:54:00,52.0,50.5,30.23,South,175,0.0,0.0,95,0.00,,,0.01,meteobridge,2013-10-30 00:54:00,
2013-10-29 20:59:00,52.0,50.9,30.23,South,175,0.0,0.0,96,0.00,,,0.01,meteobridge,2013-10-30 00:59:00,
2013-10-29 21:04:00,52.0,50.9,30.23,South,175,0.0,0.0,96,0.00,,,0.01,meteobridge,2013-10-30 01:04:00,
2013-10-29 21:10:00,52.0,50.9,30.23,South,175,0.0,0.0,96,0.00,,,0.01,meteobridge,2013-10-30 01:10:00,
2013-10-29 21:15:00,52.0,50.9,30.24,South,175,0.0,0.0,96,0.00,,,0.01,meteobridge,2013-10-30 01:15:00,
2013-10-29 21:20:00,52.2,51.1,30.24,South,175,0.0,0.0,96,0.00,,,0.01,meteobridge,2013-10-30 01:20:00,
2013-10-29 21:25:00,52.0,50.9,30.24,South,175,0.0,0.0,96,0.00,,,0.01,meteobridge,2013-10-30 01:25:00,
2013-10-29 21:30:00,52.0,50.9,30.24,South,175,0.0,0.0,96,0.00,,,0.01,meteobridge,2013-10-30 01:30:00,
2013-10-29 21:36:00,51.6,50.5,30.24,South,175,0.0,0.0,96,0.00,,,0.01,meteobridge,2013-10-30 01:36:00,
2013-10-29 21:41:00,51.6,50.5,30.24,South,175,0.0,0.0,96,0.00,,,0.01,meteobridge,2013-10-30 01:41:00,
2013-10-29 21:46:00,51.6,50.7,30.22,South,175,0.0,0.0,97,0.00,,,0.01,meteobridge,2013-10-30 01:46:00,
2013-10-29 21:51:00,51.6,50.7,30.22,South,175,0.0,0.0,97,0.00,,,0.01,meteobridge,2013-10-30 01:51:00,
2013-10-29 21:56:00,51.6,50.7,30.22,South,175,0.0,0.0,97,0.00,,,0.01,meteobridge,2013-10-30 01:56:00,
2013-10-29 22:02:00,51.6,50.7,30.23,South,175,0.0,0.0,97,0.00,,,0.01,meteobridge,2013-10-30 02:02:00,
2013-10-29 22:07:00,51.6,50.7,30.23,South,175,0.0,0.0,97,0.00,,,0.01,meteobridge,2013-10-30 02:07:00,
2013-10-29 22:12:00,51.6,50.7,30.23,South,175,0.0,0.0,97,0.00,,,0.01,meteobridge,2013-10-30 02:12:00,
2013-10-29 22:17:00,51.6,50.7,30.22,South,175,0.0,0.0,97,0.00,,,0.01,meteobridge,2013-10-30 02:17:00,
2013-10-29 22:22:00,51.6,50.7,30.22,South,175,0.0,0.0,97,0.00,,,0.01,meteobridge,2013-10-30 02:22:00,
2013-10-29 22:27:00,51.6,50.7,30.22,South,175,0.0,0.0,97,0.00,,,0.01,meteobridge,2013-10-30 02:27:00,
2013-10-29 22:33:00,51.6,50.7,30.24,South,175,0.0,0.0,97,0.00,,,0.01,meteobridge,2013-10-30 02:33:00,
2013-10-29 22:38:00,52.0,51.1,30.24,South,175,0.0,0.0,97,0.00,,,0.01,meteobridge,2013-10-30 02:38:00,
2013-10-29 22:43:00,51.6,50.7,30.24,South,175,0.0,0.0,97,0.00,,,0.01,meteobridge,2013-10-30 02:43:00,
2013-10-29 22:48:00,52.0,51.4,30.24,South,175,0.0,0.0,98,0.00,,,0.01,meteobridge,2013-10-30 02:48:00,
2013-10-29 22:53:00,52.0,51.4,30.24,South,175,0.0,0.0,98,0.00,,,0.01,meteobridge,2013-10-30 02:53:00,
2013-10-29 22:58:00,52.0,51.4,30.24,South,175,0.0,0.0,98,0.00,,,0.01,meteobridge,2013-10-30 02:58:00,
2013-10-29 23:03:00,52.0,51.4,30.24,South,175,0.0,0.0,98,0.00,,,0.01,meteobridge,2013-10-30 03:03:00,
2013-10-29 23:08:00,52.0,51.4,30.24,South,175,0.0,0.0,98,0.00,,,0.01,meteobridge,2013-10-30 03:08:00,
2013-10-29 23:14:00,52.0,51.4,30.24,South,175,0.0,0.0,98,0.00,,,0.01,meteobridge,2013-10-30 03:14:00,
2013-10-29 23:19:00,52.0,51.4,30.23,South,175,0.0,0.0,98,0.00,,,0.01,meteobridge,2013-10-30 03:19:00,
2013-10-29 23:24:00,52.0,51.4,30.23,South,175,0.0,0.0,98,0.00,,,0.01,meteobridge,2013-10-30 03:24:00,
2013-10-29 23:29:00,52.0,51.4,30.23,South,175,0.0,0.0,98,0.00,,,0.01,meteobridge,2013-10-30 03:29:00,
2013-10-29 23:34:00,52.0,51.4,30.23,South,175,0.0,0.0,98,0.00,,,0.01,meteobridge,2013-10-30 03:34:00,
2013-10-29 23:39:00,52.0,51.4,30.23,South,175,0.0,0.0,98,0.00,,,0.01,meteobridge,2013-10-30 03:39:00,
2013-10-29 23:45:00,52.0,51.4,30.22,South,175,0.0,0.0,98,0.00,,,0.01,meteobridge,2013-10-30 03:45:00,
2013-10-29 23:50:00,52.0,51.4,30.22,South,175,0.0,0.0,98,0.00,,,0.01,meteobridge,2013-10-30 03:50:00,
2013-10-29 23:55:00,52.0,51.4,30.22,South,175,0.0,0.0,98,0.00,,,0.01,meteobridge,2013-10-30 03:55:00,